createdAt,value
2022-07-30T00:00:30.794Z,97.20
2022-07-30T00:02:59.714Z,97.13
2022-07-30T00:05:28.799Z,96.99
2022-07-30T00:07:58.682Z,97.11
2022-07-30T00:10:28.381Z,97.36
2022-07-30T00:12:57.824Z,97.41
2022-07-30T00:15:26.615Z,97.22
2022-07-30T00:17:55.457Z,97.32
2022-07-30T00:20:27.891Z,97.37
2022-07-30T00:22:57.301Z,97.20
2022-07-30T00:25:26.170Z,97.15
2022-07-30T00:27:54.945Z,97.32
2022-07-30T00:30:24.310Z,97.31
2022-07-30T00:32:53.219Z,97.54
2022-07-30T00:35:22.289Z,97.40
2022-07-30T00:37:51.333Z,97.37
2022-07-30T00:40:20.317Z,97.50
2022-07-30T00:42:50.034Z,97.60
2022-07-30T00:45:19.533Z,97.80
2022-07-30T00:47:48.398Z,97.95
2022-07-30T00:50:17.519Z,97.83
2022-07-30T00:52:46.542Z,97.91
2022-07-30T00:55:16.605Z,97.91
2022-07-30T00:57:45.794Z,97.85
2022-07-30T01:00:17.806Z,97.58
2022-07-30T01:02:46.752Z,97.49
2022-07-30T01:05:15.803Z,97.52
2022-07-30T01:07:45.256Z,97.44
2022-07-30T01:10:17.864Z,97.16
2022-07-30T01:12:47.448Z,97.33
2022-07-30T01:15:17.356Z,97.13
2022-07-30T01:17:52.877Z,97.06
2022-07-30T01:20:34.203Z,96.95
2022-07-30T01:23:16.410Z,97.12
2022-07-30T01:26:08.278Z,97.35
2022-07-30T01:28:49.700Z,97.34
2022-07-30T01:31:19.868Z,97.31
2022-07-30T01:33:50.675Z,97.56
2022-07-30T01:36:25.276Z,97.85
2022-07-30T01:38:54.843Z,98.13
2022-07-30T01:41:25.649Z,98.22
2022-07-30T01:43:55.561Z,97.77
2022-07-30T01:46:25.909Z,97.98
2022-07-30T01:48:58.603Z,97.74
2022-07-30T01:51:37.475Z,97.53
2022-07-30T01:54:11.758Z,97.59
2022-07-30T01:56:42.416Z,97.29
2022-07-30T01:59:14.561Z,97.60
2022-07-30T02:01:43.824Z,97.74
2022-07-30T02:04:12.702Z,97.76
2022-07-30T02:07:00.536Z,97.73
2022-07-30T02:09:38.679Z,97.64
2022-07-30T02:12:32.082Z,97.45
2022-07-30T02:15:17.894Z,96.92
2022-07-30T02:18:11.395Z,96.78
2022-07-30T02:20:48.734Z,96.73
2022-07-30T02:23:20.125Z,96.72
2022-07-30T02:25:52.357Z,96.58
2022-07-30T02:28:25.674Z,96.73
2022-07-30T02:31:01.759Z,96.52
2022-07-30T02:33:41.211Z,96.54
2022-07-30T02:36:20.854Z,96.39
2022-07-30T02:38:52.211Z,96.44
2022-07-30T02:41:24.757Z,96.65
2022-07-30T02:43:55.469Z,96.82
2022-07-30T02:46:26.359Z,97.04
2022-07-30T02:49:17.620Z,97.52
2022-07-30T02:51:49.045Z,97.47
2022-07-30T02:54:20.774Z,96.89
2022-07-30T02:56:51.333Z,95.89
2022-07-30T02:59:23.804Z,94.42
2022-07-30T03:01:55.598Z,94.46
2022-07-30T03:04:26.540Z,93.66
2022-07-30T03:06:56.980Z,91.61
2022-07-30T03:09:27.053Z,89.96
2022-07-30T03:12:17.158Z,89.43
2022-07-30T03:14:46.011Z,89.10
2022-07-30T03:17:17.913Z,89.06
2022-07-30T03:19:49.323Z,90.93
2022-07-30T03:22:20.473Z,91.34
2022-07-30T03:24:51.322Z,90.68
2022-07-30T03:27:20.641Z,90.42
2022-07-30T03:29:52.389Z,90.32
2022-07-30T03:32:26.205Z,90.31
2022-07-30T03:34:56.546Z,89.90
2022-07-30T03:37:27.634Z,90.23
2022-07-30T03:39:58.679Z,90.50
2022-07-30T03:42:30.297Z,90.95
2022-07-30T03:45:00.109Z,91.69
2022-07-30T03:47:34.835Z,92.21
2022-07-30T03:50:05.652Z,92.09
2022-07-30T03:52:40.903Z,92.25
2022-07-30T03:55:13.960Z,91.45
2022-07-30T03:57:51.803Z,91.97
2022-07-30T04:00:28.132Z,92.42
2022-07-30T04:02:57.511Z,92.59
2022-07-30T04:05:37.582Z,92.88
2022-07-30T04:08:13.616Z,92.76
2022-07-30T04:10:43.923Z,92.32
2022-07-30T04:13:31.291Z,92.99
2022-07-30T04:16:39.642Z,92.51
2022-07-30T04:19:01.893Z,92.12
2022-07-30T04:21:33.009Z,91.69
2022-07-30T04:24:05.757Z,91.65
2022-07-30T04:26:37.889Z,92.29
2022-07-30T04:29:09.447Z,92.65
2022-07-30T04:31:43.690Z,93.21
2022-07-30T04:34:56.031Z,92.87
2022-07-30T04:37:56.911Z,91.66
2022-07-30T04:40:25.833Z,92.07
2022-07-30T04:42:54.640Z,91.54
2022-07-30T04:45:23.563Z,91.36
2022-07-30T04:47:55.281Z,91.02
2022-07-30T04:50:42.512Z,91.47
2022-07-30T04:53:14.527Z,91.85
2022-07-30T04:55:50.158Z,91.87
2022-07-30T04:58:21.706Z,92.25
2022-07-30T05:00:55.490Z,92.81
2022-07-30T05:03:31.026Z,92.97
2022-07-30T05:06:01.521Z,93.33
2022-07-30T05:08:34.215Z,93.25
2022-07-30T05:11:07.150Z,93.65
2022-07-30T05:13:38.250Z,93.93
2022-07-30T05:16:10.935Z,94.14
2022-07-30T05:18:40.015Z,94.13
2022-07-30T05:21:09.042Z,93.97
2022-07-30T05:23:50.453Z,94.20
2022-07-30T05:26:40.518Z,94.09
2022-07-30T05:29:19.673Z,94.19
2022-07-30T05:31:55.706Z,94.44
2022-07-30T05:34:32.165Z,94.50
2022-07-30T05:37:02.206Z,94.90
2022-07-30T05:39:31.564Z,95.20
2022-07-30T05:42:27.304Z,95.15
2022-07-30T05:45:00.814Z,95.23
2022-07-30T05:47:29.645Z,95.37
2022-07-30T05:50:04.534Z,95.37
2022-07-30T05:52:34.775Z,95.26
2022-07-30T05:55:15.214Z,95.28
2022-07-30T05:58:06.907Z,95.29
2022-07-30T06:00:36.414Z,95.48
2022-07-30T06:03:05.319Z,95.56
2022-07-30T06:05:58.277Z,95.93
2022-07-30T06:08:27.106Z,96.20
2022-07-30T06:10:55.940Z,96.38
2022-07-30T06:13:25.231Z,96.06
2022-07-30T06:15:54.930Z,95.73
2022-07-30T06:18:23.728Z,95.28
2022-07-30T06:20:54.871Z,94.72
2022-07-30T06:23:29.482Z,94.59
2022-07-30T06:26:30.271Z,94.16
2022-07-30T06:28:59.123Z,93.79
2022-07-30T06:31:31.967Z,93.40
2022-07-30T06:34:01.884Z,93.64
2022-07-30T06:36:37.354Z,93.51
2022-07-30T06:39:56.181Z,93.22
2022-07-30T06:42:27.289Z,93.30
2022-07-30T06:45:28.224Z,93.49
2022-07-30T06:48:19.499Z,93.74
2022-07-30T06:50:48.344Z,93.96
2022-07-30T06:53:17.364Z,93.94
2022-07-30T06:56:21.025Z,93.85
2022-07-30T06:58:54.765Z,92.70
2022-07-30T07:01:30.518Z,92.75
2022-07-30T07:04:00.230Z,92.59
2022-07-30T07:06:29.524Z,91.87
2022-07-30T07:08:58.727Z,91.48
2022-07-30T07:11:36.131Z,91.34
2022-07-30T07:14:10.228Z,91.45
2022-07-30T07:16:39.064Z,91.20
2022-07-30T07:20:00.841Z,89.85
2022-07-30T07:22:15.750Z,90.08
2022-07-30T07:24:46.301Z,85.77
2022-07-30T07:27:24.369Z,83.74
2022-07-30T07:30:01.795Z,87.08
2022-07-30T07:32:37.213Z,88.45
2022-07-30T07:35:07.107Z,87.97
2022-07-30T07:40:09.980Z,86.03
2022-07-30T07:42:43.129Z,82.96
2022-07-30T07:45:12.413Z,81.42
2022-07-30T07:47:53.129Z,81.67
2022-07-30T07:50:42.625Z,83.21
2022-07-30T07:53:19.243Z,83.24
2022-07-30T07:55:48.576Z,83.84
2022-07-30T07:58:25.636Z,85.47
2022-07-30T08:01:00.052Z,86.87
2022-07-30T08:03:49.418Z,85.78
2022-07-30T08:06:46.791Z,87.44
2022-07-30T08:09:47.667Z,87.58
2022-07-30T08:12:37.416Z,87.86
2022-07-30T08:15:25.747Z,88.06
2022-07-30T08:18:17.247Z,87.99
2022-07-30T08:21:16.081Z,87.24
2022-07-30T08:23:44.858Z,87.88
2022-07-30T08:26:15.785Z,88.81
2022-07-30T08:28:46.173Z,89.89
2022-07-30T08:31:15.182Z,89.66
2022-07-30T08:33:44.204Z,88.72
2022-07-30T08:36:13.204Z,89.29
2022-07-30T08:38:42.199Z,89.39
2022-07-30T08:41:12.468Z,89.09
2022-07-30T08:43:42.087Z,89.27
2022-07-30T08:46:16.017Z,89.18
2022-07-30T08:49:00.602Z,89.75
2022-07-30T08:51:36.995Z,90.39
2022-07-30T08:54:12.128Z,90.13
2022-07-30T08:56:42.963Z,88.63
2022-07-30T08:59:11.962Z,89.09
2022-07-30T09:01:41.119Z,89.57
2022-07-30T09:04:10.139Z,90.46
2022-07-30T09:06:41.446Z,91.13
2022-07-30T09:09:12.196Z,91.13
2022-07-30T09:11:42.907Z,91.24
2022-07-30T09:14:14.155Z,91.01
2022-07-30T09:16:45.195Z,91.35
2022-07-30T09:19:16.764Z,90.98
2022-07-30T09:22:01.341Z,91.23
2022-07-30T09:24:53.141Z,91.11
2022-07-30T09:27:51.476Z,90.49
2022-07-30T09:30:57.038Z,91.33
2022-07-30T09:33:47.423Z,92.13
2022-07-30T09:36:34.743Z,91.78
2022-07-30T09:39:39.571Z,91.88
2022-07-30T09:42:26.382Z,91.91
2022-07-30T09:45:17.865Z,92.28
2022-07-30T09:47:49.989Z,93.00
2022-07-30T09:50:30.117Z,93.13
2022-07-30T09:53:11.984Z,93.26
2022-07-30T09:55:45.319Z,93.14
2022-07-30T09:58:26.676Z,92.65
2022-07-30T10:01:02.103Z,92.97
2022-07-30T10:03:51.190Z,93.31
2022-07-30T10:07:00.876Z,92.84
2022-07-30T10:09:47.091Z,93.18
2022-07-30T10:12:18.021Z,93.63
2022-07-30T10:14:53.776Z,93.34
2022-07-30T10:17:23.573Z,93.99
2022-07-30T10:20:28.441Z,94.01
2022-07-30T10:23:20.307Z,93.92
2022-07-30T10:26:19.131Z,94.06
2022-07-30T10:29:06.394Z,94.25
2022-07-30T10:31:48.720Z,94.47
2022-07-30T10:34:23.695Z,94.72
2022-07-30T10:37:00.800Z,94.35
2022-07-30T10:39:53.203Z,94.19
2022-07-30T10:42:28.318Z,94.48
2022-07-30T10:45:17.458Z,94.51
2022-07-30T10:47:51.636Z,94.76
2022-07-30T10:50:31.412Z,95.24
2022-07-30T10:53:02.495Z,95.63
2022-07-30T10:55:38.641Z,95.53
2022-07-30T10:58:11.307Z,95.77
2022-07-30T11:00:55.110Z,95.77
2022-07-30T11:03:40.348Z,95.68
2022-07-30T11:06:16.748Z,96.05
2022-07-30T11:08:57.211Z,96.33
2022-07-30T11:12:02.329Z,96.34
2022-07-30T11:14:20.541Z,95.88
2022-07-30T11:16:52.469Z,96.11
2022-07-30T11:19:53.391Z,96.32
2022-07-30T11:22:33.099Z,96.50
2022-07-30T11:25:05.455Z,96.35
2022-07-30T11:27:48.443Z,96.26
2022-07-30T11:30:18.107Z,96.29
2022-07-30T11:32:58.138Z,96.37
2022-07-30T11:35:34.568Z,96.26
2022-07-30T11:38:04.306Z,96.16
2022-07-30T11:40:55.308Z,96.06
2022-07-30T11:43:34.988Z,95.94
2022-07-30T11:46:10.137Z,95.85
2022-07-30T11:48:42.477Z,96.00
2022-07-30T11:51:11.500Z,95.98
2022-07-30T11:53:40.315Z,95.95
2022-07-30T11:56:13.966Z,95.92
2022-07-30T11:58:45.353Z,95.87
2022-07-30T12:01:19.106Z,95.94
2022-07-30T12:03:48.316Z,95.98
2022-07-30T12:06:18.738Z,96.25
2022-07-30T12:08:51.201Z,95.88
2022-07-30T12:11:23.821Z,95.54
2022-07-30T12:14:02.633Z,95.28
2022-07-30T12:16:33.195Z,95.13
2022-07-30T12:19:04.274Z,95.37
2022-07-30T12:21:34.083Z,95.76
2022-07-30T12:24:08.090Z,95.86
2022-07-30T12:26:37.267Z,96.23
2022-07-30T12:29:13.723Z,96.16
2022-07-30T12:31:43.192Z,96.50
2022-07-30T12:34:25.009Z,96.60
2022-07-30T12:36:53.982Z,96.79
2022-07-30T12:39:25.154Z,97.00
2022-07-30T12:41:59.073Z,97.06
2022-07-30T12:44:37.119Z,96.92
2022-07-30T12:47:08.217Z,97.24
2022-07-30T12:49:48.803Z,97.05
2022-07-30T12:52:38.341Z,96.95
2022-07-30T12:55:10.486Z,97.09
2022-07-30T12:58:08.758Z,97.08
2022-07-30T13:00:53.307Z,97.00
2022-07-30T13:03:25.582Z,96.81
2022-07-30T13:05:56.597Z,96.79
2022-07-30T13:08:54.729Z,96.79
2022-07-30T13:11:28.746Z,96.79
2022-07-30T13:13:57.561Z,96.05
2022-07-30T13:16:26.395Z,96.13
2022-07-30T13:18:55.238Z,95.93
2022-07-30T13:21:24.465Z,95.95
2022-07-30T13:23:53.257Z,96.07
2022-07-30T13:26:22.133Z,96.35
2022-07-30T13:28:50.926Z,96.40
2022-07-30T13:31:19.849Z,96.35
2022-07-30T13:33:48.919Z,96.27
2022-07-30T13:36:18.657Z,96.59
2022-07-30T13:38:52.198Z,96.73
2022-07-30T13:41:21.727Z,96.81
2022-07-30T13:43:50.629Z,96.92
2022-07-30T13:46:19.458Z,96.81
2022-07-30T13:48:48.395Z,97.11
2022-07-30T13:51:17.290Z,97.13
2022-07-30T13:53:46.282Z,97.16
2022-07-30T13:56:15.502Z,97.27
2022-07-30T13:58:44.747Z,97.21
2022-07-30T14:01:17.869Z,97.09
2022-07-30T14:03:50.655Z,96.71
2022-07-30T14:06:21.719Z,96.87
2022-07-30T14:08:50.597Z,96.76
2022-07-30T14:11:19.484Z,96.48
2022-07-30T14:13:48.701Z,96.49
2022-07-30T14:16:43.773Z,96.64
2022-07-30T14:19:08.401Z,96.63
2022-07-30T14:21:55.808Z,96.68
2022-07-30T14:24:24.621Z,96.61
2022-07-30T14:26:57.981Z,96.70
2022-07-30T14:29:30.311Z,96.74
2022-07-30T14:31:59.116Z,96.77
2022-07-30T14:34:28.024Z,96.78
2022-07-30T14:36:57.362Z,96.93
2022-07-30T14:39:26.565Z,96.87
2022-07-30T14:41:56.611Z,96.85
2022-07-30T14:44:25.486Z,96.75
2022-07-30T14:46:54.417Z,96.73
2022-07-30T14:49:24.082Z,96.71
2022-07-30T14:51:53.414Z,96.77
2022-07-30T14:54:23.244Z,96.86
2022-07-30T14:56:57.719Z,96.78
2022-07-30T14:59:28.720Z,96.70
2022-07-30T15:01:58.415Z,96.61
2022-07-30T15:04:27.485Z,96.98
2022-07-30T15:06:56.297Z,96.90
2022-07-30T15:09:25.233Z,96.75
2022-07-30T15:12:09.383Z,97.00
2022-07-30T15:14:40.316Z,96.86
2022-07-30T15:17:09.897Z,96.86
2022-07-30T15:19:49.197Z,97.01
2022-07-30T15:22:20.929Z,96.96
2022-07-30T15:24:49.952Z,97.10
2022-07-30T15:27:19.300Z,96.95
2022-07-30T15:29:48.295Z,97.05
2022-07-30T15:32:17.962Z,96.99
2022-07-30T15:34:47.352Z,97.17
2022-07-30T15:37:16.290Z,97.30
2022-07-30T15:39:45.115Z,97.17
2022-07-30T15:42:15.049Z,97.32
2022-07-30T15:44:48.612Z,97.21
2022-07-30T15:47:18.111Z,97.29
2022-07-30T15:49:47.164Z,97.37
2022-07-30T15:52:16.290Z,97.50
2022-07-30T15:54:45.192Z,97.31
2022-07-30T15:57:14.150Z,97.32
2022-07-30T15:59:42.962Z,97.21
2022-07-30T16:02:13.153Z,97.27
2022-07-30T16:04:42.261Z,97.43
2022-07-30T16:07:17.048Z,97.20
2022-07-30T16:09:45.857Z,97.38
2022-07-30T16:12:14.607Z,97.40
2022-07-30T16:14:43.776Z,97.42
2022-07-30T16:17:14.413Z,97.52
2022-07-30T16:19:44.975Z,97.32
2022-07-30T16:22:15.778Z,97.54
2022-07-30T16:24:53.375Z,97.45
2022-07-30T16:27:22.310Z,97.54
2022-07-30T16:29:51.055Z,97.48
2022-07-30T16:32:20.042Z,97.41
2022-07-30T16:34:48.923Z,97.60
2022-07-30T16:37:17.938Z,97.55
2022-07-30T16:39:46.740Z,97.43
2022-07-30T16:42:15.573Z,97.43
2022-07-30T16:44:44.352Z,97.30
2022-07-30T16:47:14.035Z,97.30
2022-07-30T16:49:42.998Z,97.39
2022-07-30T16:52:11.869Z,97.33
2022-07-30T16:54:40.830Z,97.50
2022-07-30T16:57:10.507Z,97.38
2022-07-30T16:59:43.551Z,97.53
2022-07-30T17:02:13.048Z,97.30
2022-07-30T17:04:42.238Z,97.50
2022-07-30T17:07:11.160Z,97.52
2022-07-30T17:09:40.043Z,97.28
2022-07-30T17:12:09.493Z,97.50
2022-07-30T17:14:42.445Z,97.47
2022-07-30T17:17:14.492Z,97.43
2022-07-30T17:19:44.062Z,97.43
2022-07-30T17:22:13.076Z,97.63
2022-07-30T17:24:42.187Z,97.61
2022-07-30T17:27:11.234Z,97.45
2022-07-30T17:29:49.890Z,97.41
2022-07-30T17:32:20.746Z,97.42
2022-07-30T17:34:50.256Z,97.41
2022-07-30T17:37:19.415Z,97.48
2022-07-30T17:40:26.709Z,97.67
2022-07-30T17:42:40.438Z,97.30
2022-07-30T17:45:09.734Z,97.45
2022-07-30T17:47:39.112Z,97.27
2022-07-30T17:50:08.902Z,97.32
2022-07-30T17:52:38.527Z,97.35
2022-07-30T17:55:11.665Z,97.44
2022-07-30T17:57:40.841Z,97.38
2022-07-30T18:00:11.309Z,97.38
2022-07-30T18:02:40.181Z,97.28
2022-07-30T18:05:11.148Z,97.21
2022-07-30T18:07:39.967Z,97.16
2022-07-30T18:10:09.598Z,97.13
2022-07-30T18:12:49.208Z,97.06
2022-07-30T18:15:18.987Z,96.92
2022-07-30T18:17:48.079Z,97.01
2022-07-30T18:20:16.979Z,96.94
2022-07-30T18:22:46.116Z,96.89
2022-07-30T18:25:20.530Z,96.95
2022-07-30T18:27:52.890Z,97.10
2022-07-30T18:30:21.807Z,97.13
2022-07-30T18:32:51.438Z,97.04
2022-07-30T18:35:20.604Z,97.12
2022-07-30T18:37:49.596Z,97.23
2022-07-30T18:40:24.153Z,97.04
2022-07-30T18:42:53.277Z,97.12
2022-07-30T18:45:23.305Z,97.08
2022-07-30T18:47:52.252Z,97.26
2022-07-30T18:50:21.063Z,97.12
2022-07-30T18:52:50.056Z,97.14
2022-07-30T18:55:21.384Z,97.04
2022-07-30T18:57:52.043Z,97.16
2022-07-30T19:00:31.078Z,97.27
2022-07-30T19:03:05.025Z,97.23
2022-07-30T19:05:33.889Z,97.27
2022-07-30T19:08:02.823Z,97.13
2022-07-30T19:10:31.949Z,97.19
2022-07-30T19:13:00.750Z,97.36
2022-07-30T19:15:30.201Z,97.32
2022-07-30T19:17:59.890Z,97.28
2022-07-30T19:20:29.009Z,97.10
2022-07-30T19:23:05.463Z,97.16
2022-07-30T19:25:36.087Z,97.24
2022-07-30T19:28:05.957Z,97.50
2022-07-30T19:30:35.466Z,97.37
2022-07-30T19:33:14.184Z,97.24
2022-07-30T19:35:44.805Z,97.37
2022-07-30T19:38:21.986Z,97.38
2022-07-30T19:40:53.168Z,97.55
2022-07-30T19:43:24.032Z,97.48
2022-07-30T19:45:53.610Z,97.37
2022-07-30T19:48:29.524Z,97.36
2022-07-30T19:51:01.376Z,97.66
2022-07-30T19:56:20.410Z,97.51
2022-07-30T19:58:52.339Z,97.28
2022-07-30T20:01:22.991Z,97.44
2022-07-30T20:03:52.674Z,97.30
2022-07-30T20:06:22.810Z,97.67
2022-07-30T20:08:52.478Z,97.48
2022-07-30T20:11:35.849Z,97.57
2022-07-30T20:14:05.867Z,97.35
2022-07-30T20:16:36.109Z,97.56
2022-07-30T20:19:05.654Z,97.62
2022-07-30T20:22:06.875Z,97.67
2022-07-30T20:24:23.937Z,97.57
2022-07-30T20:26:54.386Z,97.49
2022-07-30T20:29:24.002Z,97.57
2022-07-30T20:31:54.000Z,97.60
2022-07-30T20:34:25.763Z,97.70
2022-07-30T20:36:56.464Z,97.50
2022-07-30T20:39:26.441Z,97.69
2022-07-30T20:42:12.547Z,97.63
2022-07-30T20:44:43.907Z,97.60
2022-07-30T20:47:37.401Z,97.62
2022-07-30T20:52:58.194Z,97.84
2022-07-30T20:55:27.451Z,97.92
2022-07-30T20:58:06.961Z,97.87
2022-07-30T21:00:49.422Z,97.68
2022-07-30T21:03:21.536Z,97.69
2022-07-30T21:05:52.330Z,97.58
2022-07-30T21:08:25.194Z,97.75
2022-07-30T21:10:55.578Z,97.95
2022-07-30T21:13:26.318Z,97.75
2022-07-30T21:16:02.053Z,97.54
2022-07-30T21:18:32.851Z,97.86
2022-07-30T21:21:04.935Z,97.72
2022-07-30T21:23:34.845Z,98.23
2022-07-30T21:26:10.535Z,97.72
2022-07-30T21:28:42.398Z,97.85
2022-07-30T21:31:11.280Z,97.75
2022-07-30T21:33:40.194Z,97.91
2022-07-30T21:36:10.886Z,97.81
2022-07-30T21:38:43.462Z,97.83
2022-07-30T21:41:14.427Z,98.00
2022-07-30T21:43:49.357Z,97.93
2022-07-30T21:46:25.063Z,97.88
2022-07-30T21:48:58.355Z,97.77
2022-07-30T21:51:28.519Z,97.81
2022-07-30T21:53:59.040Z,98.05
2022-07-30T21:56:27.852Z,97.85
2022-07-30T21:58:56.747Z,97.86
2022-07-30T22:01:26.684Z,97.91
2022-07-30T22:04:01.653Z,97.83
2022-07-30T22:06:39.916Z,97.85
2022-07-30T22:09:19.264Z,97.88
2022-07-30T22:12:06.297Z,97.94
2022-07-30T22:14:35.729Z,97.94
2022-07-30T22:17:04.682Z,97.93
2022-07-30T22:19:34.146Z,97.82
2022-07-30T22:22:25.879Z,97.95
2022-07-30T22:24:51.734Z,97.84
2022-07-30T22:27:22.048Z,97.86
2022-07-30T22:29:51.439Z,98.07
2022-07-30T22:32:25.303Z,97.99
2022-07-30T22:34:55.058Z,98.02
2022-07-30T22:37:34.031Z,97.99
2022-07-30T22:40:06.675Z,97.92
2022-07-30T22:42:46.579Z,97.86
2022-07-30T22:45:47.132Z,97.95
2022-07-30T22:48:10.857Z,97.92
2022-07-30T22:50:41.090Z,97.98
2022-07-30T22:54:02.719Z,97.94
2022-07-30T22:55:59.441Z,97.92
2022-07-30T22:58:29.635Z,97.82
2022-07-30T23:00:59.321Z,97.82
2022-07-30T23:03:28.165Z,97.79
2022-07-30T23:05:56.969Z,97.79
2022-07-30T23:08:30.418Z,97.92
2022-07-30T23:11:02.757Z,97.86
2022-07-30T23:12:16.500Z,97.40
2022-07-30T23:12:19.444Z,97.76
2022-07-30T23:13:31.647Z,97.89
2022-07-30T23:16:00.512Z,97.87
2022-07-30T23:18:29.572Z,97.76
2022-07-30T23:21:00.383Z,97.86
2022-07-30T23:23:34.069Z,97.82
2022-07-30T23:26:06.779Z,97.80
2022-07-30T23:28:37.488Z,97.88
2022-07-30T23:31:06.314Z,97.86
2022-07-30T23:33:35.161Z,97.91
2022-07-30T23:36:06.153Z,97.82
2022-07-30T23:38:35.469Z,97.65
2022-07-30T23:41:06.239Z,97.84
2022-07-30T23:43:35.849Z,98.01
2022-07-30T23:46:05.285Z,97.87
2022-07-30T23:48:39.690Z,97.91
2022-07-30T23:51:08.477Z,98.04
2022-07-30T23:53:37.315Z,97.81
2022-07-30T23:56:06.092Z,97.80
2022-07-30T23:58:34.963Z,97.99
